createdAt,value
2023-05-05T00:01:56.897Z,67.17
2023-05-05T00:04:23.467Z,66.80
2023-05-05T00:06:49.936Z,67.37
2023-05-05T00:09:16.336Z,67.27
2023-05-05T00:11:42.832Z,68.71
2023-05-05T00:14:09.470Z,69.27
2023-05-05T00:16:37.001Z,68.36
2023-05-05T00:19:03.520Z,68.38
2023-05-05T00:21:30.144Z,69.08
2023-05-05T00:23:56.779Z,70.50
2023-05-05T00:26:23.216Z,70.70
2023-05-05T00:28:49.690Z,71.14
2023-05-05T00:31:16.175Z,71.25
2023-05-05T00:33:43.197Z,69.58
2023-05-05T00:36:09.884Z,69.31
2023-05-05T00:38:36.455Z,69.79
2023-05-05T00:41:03.100Z,70.34
2023-05-05T00:43:29.618Z,70.02
2023-05-05T00:45:56.871Z,70.33
2023-05-05T00:48:23.249Z,69.29
2023-05-05T00:50:50.107Z,68.75
2023-05-05T00:53:16.474Z,68.38
2023-05-05T00:55:43.222Z,68.17
2023-05-05T00:58:09.991Z,69.06
2023-05-05T01:00:36.718Z,68.88
2023-05-05T01:03:03.673Z,68.52
2023-05-05T01:05:30.165Z,68.40
2023-05-05T01:07:56.606Z,67.71
2023-05-05T01:10:23.333Z,67.20
2023-05-05T01:12:50.220Z,67.63
2023-05-05T01:15:16.692Z,67.74
2023-05-05T01:17:43.485Z,68.66
2023-05-05T01:20:11.101Z,69.12
2023-05-05T01:22:37.645Z,68.75
2023-05-05T01:25:04.255Z,68.77
2023-05-05T01:27:33.375Z,68.66
2023-05-05T01:29:59.868Z,70.21
2023-05-05T01:32:26.467Z,70.24
2023-05-05T01:34:53.939Z,70.04
2023-05-05T01:37:20.668Z,70.00
2023-05-05T01:39:47.081Z,69.26
2023-05-05T01:42:13.441Z,69.64
2023-05-05T01:44:40.006Z,69.41
2023-05-05T01:47:06.492Z,70.16
2023-05-05T01:49:33.956Z,69.69
2023-05-05T01:52:00.318Z,70.90
2023-05-05T01:54:27.065Z,70.82
2023-05-05T01:56:53.629Z,70.73
2023-05-05T01:59:20.119Z,71.90
2023-05-05T02:01:46.482Z,71.87
2023-05-05T02:04:12.866Z,71.77
2023-05-05T02:06:39.259Z,71.20
2023-05-05T02:09:05.749Z,70.93
2023-05-05T02:11:32.184Z,70.79
2023-05-05T02:13:58.620Z,70.33
2023-05-05T02:16:25.205Z,69.62
2023-05-05T02:18:53.629Z,70.13
2023-05-05T02:21:19.962Z,69.29
2023-05-05T02:23:47.450Z,69.59
2023-05-05T02:26:13.844Z,68.98
2023-05-05T02:28:40.247Z,69.60
2023-05-05T02:31:06.628Z,69.64
2023-05-05T02:33:33.289Z,68.85
2023-05-05T02:35:59.936Z,68.56
2023-05-05T02:38:26.539Z,68.52
2023-05-05T02:40:52.958Z,68.95
2023-05-05T02:43:19.709Z,69.36
2023-05-05T02:45:46.586Z,69.71
2023-05-05T02:48:13.166Z,70.66
2023-05-05T02:50:39.612Z,72.32
2023-05-05T02:53:06.035Z,71.91
2023-05-05T02:55:32.382Z,71.75
2023-05-05T02:57:58.855Z,72.24
2023-05-05T03:00:25.315Z,73.27
2023-05-05T03:02:51.771Z,72.75
2023-05-05T03:05:18.226Z,72.91
2023-05-05T03:07:44.734Z,73.03
2023-05-05T03:10:11.194Z,73.45
2023-05-05T03:12:37.954Z,73.55
2023-05-05T03:15:04.391Z,73.71
2023-05-05T03:17:30.819Z,73.81
2023-05-05T03:19:57.394Z,73.23
2023-05-05T03:22:23.789Z,73.54
2023-05-05T03:24:50.220Z,73.28
2023-05-05T03:27:16.688Z,74.04
2023-05-05T03:29:43.137Z,73.54
2023-05-05T03:32:10.051Z,73.61
2023-05-05T03:34:36.737Z,74.37
2023-05-05T03:37:03.197Z,73.90
2023-05-05T03:39:29.997Z,74.41
2023-05-05T03:41:56.614Z,74.26
2023-05-05T03:44:23.076Z,74.46
2023-05-05T03:46:49.519Z,74.75
2023-05-05T03:49:15.899Z,73.54
2023-05-05T03:51:42.346Z,73.62
2023-05-05T03:54:08.732Z,72.89
2023-05-05T03:56:35.129Z,72.79
2023-05-05T03:59:01.606Z,73.17
2023-05-05T04:01:27.982Z,72.73
2023-05-05T04:03:54.441Z,72.67
2023-05-05T04:06:20.846Z,72.93
2023-05-05T04:08:47.232Z,72.61
2023-05-05T04:11:13.847Z,71.93
2023-05-05T04:13:40.184Z,72.74
2023-05-05T04:16:06.948Z,73.55
2023-05-05T04:18:34.315Z,73.44
2023-05-05T04:21:00.691Z,73.16
2023-05-05T04:23:28.115Z,73.48
2023-05-05T04:25:56.854Z,73.45
2023-05-05T04:28:23.185Z,73.33
2023-05-05T04:30:49.690Z,73.22
2023-05-05T04:33:16.030Z,73.82
2023-05-05T04:35:44.889Z,73.75
2023-05-05T04:38:11.267Z,74.01
2023-05-05T04:40:37.886Z,74.22
2023-05-05T04:43:06.375Z,73.82
2023-05-05T04:45:32.765Z,73.34
2023-05-05T04:47:59.123Z,73.35
2023-05-05T04:50:25.657Z,73.08
2023-05-05T04:52:52.731Z,73.76
2023-05-05T04:55:19.363Z,72.97
2023-05-05T04:57:45.923Z,72.45
2023-05-05T05:00:12.299Z,72.98
2023-05-05T05:02:38.842Z,72.62
2023-05-05T05:05:05.256Z,72.82
2023-05-05T05:07:31.798Z,72.89
2023-05-05T05:09:58.190Z,72.50
2023-05-05T05:12:24.620Z,72.63
2023-05-05T05:14:51.007Z,72.74
2023-05-05T05:17:18.629Z,71.99
2023-05-05T05:19:45.050Z,71.82
2023-05-05T05:22:11.494Z,71.66
2023-05-05T05:24:38.010Z,70.72
2023-05-05T05:27:04.537Z,70.96
2023-05-05T05:29:30.930Z,70.77
2023-05-05T05:31:57.368Z,69.62
2023-05-05T05:34:23.883Z,70.21
2023-05-05T05:36:50.750Z,69.60
2023-05-05T05:39:17.119Z,70.18
2023-05-05T05:41:43.497Z,68.86
2023-05-05T05:44:09.846Z,70.45
2023-05-05T05:46:36.256Z,70.54
2023-05-05T05:49:02.651Z,70.40
2023-05-05T05:51:29.058Z,69.71
2023-05-05T05:53:58.780Z,69.09
2023-05-05T05:56:25.364Z,68.04
2023-05-05T05:58:51.711Z,67.75
2023-05-05T06:01:18.054Z,67.70
2023-05-05T06:03:44.444Z,68.28
2023-05-05T06:06:10.888Z,68.14
2023-05-05T06:08:37.229Z,68.24
2023-05-05T06:11:03.546Z,67.59
2023-05-05T06:13:29.897Z,67.25
2023-05-05T06:15:56.278Z,67.01
2023-05-05T06:18:22.741Z,66.59
2023-05-05T06:20:49.151Z,64.76
2023-05-05T06:23:15.513Z,64.42
2023-05-05T06:25:41.915Z,62.51
2023-05-05T06:28:08.319Z,62.56
2023-05-05T06:30:34.819Z,61.82
2023-05-05T06:33:02.319Z,61.44
2023-05-05T06:35:28.725Z,61.34
2023-05-05T06:37:55.111Z,61.38
2023-05-05T06:40:21.484Z,60.28
2023-05-05T06:42:48.045Z,60.53
2023-05-05T06:45:14.529Z,60.86
2023-05-05T06:47:40.956Z,58.52
2023-05-05T06:50:08.098Z,57.79
2023-05-05T06:52:34.827Z,57.26
2023-05-05T06:55:01.238Z,57.39
2023-05-05T06:57:27.840Z,57.54
2023-05-05T06:59:54.628Z,58.02
2023-05-05T07:02:21.065Z,56.88
2023-05-05T07:04:47.450Z,56.46
2023-05-05T07:07:13.794Z,55.57
2023-05-05T07:09:40.186Z,55.38
2023-05-05T07:12:06.688Z,55.14
2023-05-05T07:14:33.505Z,53.30
2023-05-05T07:16:59.915Z,52.21
2023-05-05T07:19:27.660Z,52.42
2023-05-05T07:21:54.054Z,53.33
2023-05-05T07:24:20.641Z,52.79
2023-05-05T07:26:47.099Z,55.07
2023-05-05T07:29:13.550Z,51.80
2023-05-05T07:31:40.128Z,51.76
2023-05-05T07:34:06.660Z,50.89
2023-05-05T07:36:33.069Z,49.40
2023-05-05T07:38:59.574Z,49.91
2023-05-05T07:41:26.132Z,50.61
2023-05-05T07:43:53.269Z,52.13
2023-05-05T07:46:19.694Z,51.83
2023-05-05T07:48:46.147Z,49.86
2023-05-05T07:51:12.657Z,48.35
2023-05-05T07:53:38.999Z,48.51
2023-05-05T07:56:08.449Z,49.24
2023-05-05T07:58:35.306Z,49.00
2023-05-05T08:01:01.684Z,49.38
2023-05-05T08:03:28.492Z,47.54
2023-05-05T08:05:55.453Z,46.88
2023-05-05T08:08:21.824Z,47.44
2023-05-05T08:10:48.267Z,45.57
2023-05-05T08:13:14.693Z,47.66
2023-05-05T08:15:41.201Z,46.16
2023-05-05T08:18:07.681Z,47.92
2023-05-05T08:20:34.184Z,46.28
2023-05-05T08:23:00.569Z,46.57
2023-05-05T08:25:27.066Z,48.16
2023-05-05T08:27:53.432Z,46.73
2023-05-05T08:30:20.431Z,45.04
2023-05-05T08:32:46.822Z,43.62
2023-05-05T08:35:13.487Z,46.29
2023-05-05T08:37:40.187Z,47.12
2023-05-05T08:40:06.552Z,45.25
2023-05-05T08:42:36.923Z,45.60
2023-05-05T08:45:05.562Z,45.74
2023-05-05T08:47:32.732Z,45.75
2023-05-05T08:49:59.116Z,45.86
2023-05-05T08:52:25.594Z,43.09
2023-05-05T08:54:51.987Z,44.74
2023-05-05T08:57:18.370Z,43.43
2023-05-05T08:59:44.717Z,42.68
2023-05-05T09:02:11.410Z,44.04
2023-05-05T09:04:37.865Z,43.37
2023-05-05T09:07:04.341Z,45.55
2023-05-05T09:09:30.857Z,42.54
2023-05-05T09:11:57.309Z,44.41
2023-05-05T09:14:23.713Z,43.17
2023-05-05T09:16:50.134Z,42.38
2023-05-05T09:19:16.549Z,42.55
2023-05-05T09:21:43.243Z,42.52
2023-05-05T09:24:09.935Z,44.42
2023-05-05T09:26:36.424Z,44.43
2023-05-05T09:29:02.897Z,43.14
2023-05-05T09:31:30.302Z,47.11
2023-05-05T09:33:56.666Z,44.20
2023-05-05T09:36:23.080Z,43.21
2023-05-05T09:38:49.907Z,40.88
2023-05-05T09:41:16.454Z,39.75
2023-05-05T09:43:42.861Z,40.62
2023-05-05T09:46:09.914Z,40.25
2023-05-05T09:48:36.577Z,41.52
2023-05-05T09:51:02.986Z,43.80
2023-05-05T09:53:29.478Z,42.97
2023-05-05T09:55:55.821Z,42.08
2023-05-05T09:58:22.468Z,40.34
2023-05-05T10:00:48.921Z,42.03
2023-05-05T10:03:15.260Z,42.08
2023-05-05T10:05:41.818Z,41.19
2023-05-05T10:08:08.205Z,42.88
2023-05-05T10:10:35.488Z,45.56
2023-05-05T10:13:02.012Z,42.12
2023-05-05T10:15:29.348Z,41.65
2023-05-05T10:18:06.654Z,43.07
2023-05-05T10:20:34.355Z,45.92
2023-05-05T10:23:00.714Z,40.15
2023-05-05T10:25:28.144Z,42.12
2023-05-05T10:27:54.654Z,43.38
2023-05-05T10:30:21.094Z,43.06
2023-05-05T10:32:59.324Z,42.84
2023-05-05T10:35:38.245Z,43.13
2023-05-05T10:38:04.817Z,43.43
2023-05-05T10:40:33.486Z,41.31
2023-05-05T10:42:59.956Z,39.18
2023-05-05T10:45:26.567Z,39.05
2023-05-05T10:47:53.193Z,40.97
2023-05-05T10:50:19.785Z,41.47
2023-05-05T10:52:46.179Z,42.24
2023-05-05T10:55:12.566Z,44.39
2023-05-05T10:57:41.255Z,43.10
2023-05-05T11:00:07.820Z,42.54
2023-05-05T11:02:34.692Z,39.97
2023-05-05T11:05:01.286Z,39.07
2023-05-05T11:07:27.684Z,38.15
2023-05-05T11:09:54.145Z,38.13
2023-05-05T11:12:20.579Z,38.19
2023-05-05T11:14:46.966Z,41.21
2023-05-05T11:17:13.393Z,40.60
2023-05-05T11:19:39.831Z,42.90
2023-05-05T11:22:06.307Z,42.96
2023-05-05T11:24:32.710Z,42.84
2023-05-05T11:26:59.179Z,42.96
2023-05-05T11:29:25.565Z,41.14
2023-05-05T11:31:52.051Z,40.40
2023-05-05T11:34:20.451Z,40.18
2023-05-05T11:36:49.041Z,40.37
2023-05-05T11:39:15.694Z,40.28
2023-05-05T11:41:42.075Z,40.11
2023-05-05T11:44:08.543Z,41.96
2023-05-05T11:46:35.047Z,41.59
2023-05-05T11:49:01.518Z,42.12
2023-05-05T11:51:27.916Z,42.17
2023-05-05T11:53:54.565Z,42.74
2023-05-05T11:56:21.188Z,43.91
2023-05-05T11:58:47.581Z,45.40
2023-05-05T12:01:13.962Z,42.64
2023-05-05T12:03:40.405Z,39.87
2023-05-05T12:06:06.869Z,41.30
2023-05-05T12:08:33.314Z,42.38
2023-05-05T12:10:59.661Z,42.78
2023-05-05T12:13:26.213Z,43.48
2023-05-05T12:15:52.739Z,44.92
2023-05-05T12:18:19.151Z,45.33
2023-05-05T12:20:45.758Z,45.72
2023-05-05T12:23:12.136Z,44.92
2023-05-05T12:25:39.537Z,44.33
2023-05-05T12:28:05.933Z,44.09
2023-05-05T12:30:32.357Z,41.21
2023-05-05T12:32:58.854Z,42.69
2023-05-05T12:35:25.396Z,44.21
2023-05-05T12:37:51.803Z,42.34
2023-05-05T12:40:18.170Z,43.30
2023-05-05T12:42:46.230Z,44.90
2023-05-05T12:45:13.486Z,46.10
2023-05-05T12:47:39.890Z,44.96
2023-05-05T12:50:06.386Z,43.20
2023-05-05T12:52:32.835Z,41.00
2023-05-05T12:54:59.342Z,43.16
2023-05-05T12:57:26.182Z,41.18
2023-05-05T12:59:52.584Z,40.34
2023-05-05T13:02:19.007Z,40.79
2023-05-05T13:04:45.534Z,42.09
2023-05-05T13:07:12.048Z,43.02
2023-05-05T13:09:39.907Z,41.40
2023-05-05T13:12:06.344Z,39.07
2023-05-05T13:14:32.891Z,41.22
2023-05-05T13:16:59.297Z,39.46
2023-05-05T13:19:25.690Z,38.79
2023-05-05T13:21:52.086Z,39.66
2023-05-05T13:24:28.763Z,40.36
2023-05-05T13:27:04.896Z,40.83
2023-05-05T13:29:31.819Z,39.47
2023-05-05T13:31:58.287Z,37.46
2023-05-05T13:34:24.685Z,36.91
2023-05-05T13:36:51.137Z,35.25
2023-05-05T13:39:17.584Z,37.07
2023-05-05T13:41:44.066Z,36.65
2023-05-05T13:44:10.416Z,36.02
2023-05-05T13:46:36.910Z,35.95
2023-05-05T13:49:03.342Z,36.48
2023-05-05T13:51:29.831Z,35.31
2023-05-05T13:53:56.220Z,34.51
2023-05-05T13:56:22.626Z,32.40
2023-05-05T13:58:49.116Z,33.64
2023-05-05T14:01:15.513Z,36.67
2023-05-05T14:03:41.954Z,35.54
2023-05-05T14:06:08.391Z,34.72
2023-05-05T14:08:34.724Z,36.37
2023-05-05T14:11:01.268Z,36.56
2023-05-05T14:13:27.668Z,34.97
2023-05-05T14:15:54.039Z,36.38
2023-05-05T14:18:20.425Z,41.26
2023-05-05T14:20:46.885Z,40.85
2023-05-05T14:23:13.251Z,42.36
2023-05-05T14:25:39.608Z,44.29
2023-05-05T14:28:06.116Z,43.44
2023-05-05T14:30:32.499Z,43.25
2023-05-05T14:32:58.920Z,44.98
2023-05-05T14:35:25.344Z,45.44
2023-05-05T14:37:51.709Z,45.46
2023-05-05T14:40:18.155Z,46.09
2023-05-05T14:42:44.549Z,47.62
2023-05-05T14:45:10.959Z,49.06
2023-05-05T14:47:37.351Z,48.54
2023-05-05T14:50:04.104Z,49.04
2023-05-05T14:52:30.690Z,48.05
2023-05-05T14:54:57.044Z,49.23
2023-05-05T14:57:23.482Z,48.56
2023-05-05T14:59:49.863Z,49.31
2023-05-05T15:02:16.249Z,50.38
2023-05-05T15:04:42.642Z,49.47
2023-05-05T15:07:09.078Z,51.04
2023-05-05T15:09:35.641Z,51.74
2023-05-05T15:12:02.033Z,52.35
2023-05-05T15:14:28.572Z,51.48
2023-05-05T15:16:55.073Z,50.78
2023-05-05T15:19:21.502Z,51.44
2023-05-05T15:21:47.988Z,50.61
2023-05-05T15:24:14.367Z,52.25
2023-05-05T15:26:40.753Z,53.26
2023-05-05T15:29:07.106Z,54.07
2023-05-05T15:31:33.582Z,53.24
2023-05-05T15:34:00.012Z,53.57
2023-05-05T15:36:26.638Z,53.91
2023-05-05T15:38:53.013Z,54.59
2023-05-05T15:41:19.427Z,51.57
2023-05-05T15:43:45.817Z,51.99
2023-05-05T15:46:12.158Z,52.21
2023-05-05T15:48:38.493Z,51.63
2023-05-05T15:51:04.885Z,53.08
2023-05-05T15:53:31.274Z,52.87
2023-05-05T15:55:57.720Z,52.62
2023-05-05T15:58:24.055Z,50.46
2023-05-05T16:00:50.494Z,51.64
2023-05-05T16:03:17.043Z,49.57
2023-05-05T16:05:43.567Z,50.62
2023-05-05T16:08:09.954Z,50.84
2023-05-05T16:10:36.343Z,50.63
2023-05-05T16:13:02.880Z,51.55
2023-05-05T16:15:29.266Z,51.34
2023-05-05T16:17:55.739Z,50.44
2023-05-05T16:20:22.167Z,48.98
2023-05-05T16:22:48.530Z,49.35
2023-05-05T16:25:14.943Z,49.39
2023-05-05T16:27:41.325Z,49.37
2023-05-05T16:30:07.718Z,50.26
2023-05-05T16:32:34.081Z,49.50
2023-05-05T16:35:00.528Z,50.80
2023-05-05T16:37:26.975Z,51.87
2023-05-05T16:39:53.376Z,50.14
2023-05-05T16:42:19.882Z,50.69
2023-05-05T16:44:46.257Z,52.24
2023-05-05T16:47:12.628Z,47.72
2023-05-05T16:49:39.028Z,49.04
2023-05-05T16:52:05.428Z,48.36
2023-05-05T16:54:31.788Z,45.59
2023-05-05T16:56:58.200Z,46.30
2023-05-05T16:59:25.495Z,45.26
2023-05-05T17:01:51.903Z,45.95
2023-05-05T17:04:18.641Z,47.60
2023-05-05T17:06:45.009Z,47.56
2023-05-05T17:09:11.448Z,47.13
2023-05-05T17:11:38.066Z,47.96
2023-05-05T17:14:04.483Z,46.58
2023-05-05T17:16:33.393Z,45.64
2023-05-05T17:18:59.853Z,44.71
2023-05-05T17:21:26.247Z,45.64
2023-05-05T17:23:52.657Z,44.14
2023-05-05T17:26:19.225Z,44.69
2023-05-05T17:28:45.622Z,44.05
2023-05-05T17:31:12.010Z,45.70
2023-05-05T17:33:38.397Z,44.51
2023-05-05T17:36:04.919Z,44.06
2023-05-05T17:38:31.303Z,45.17
2023-05-05T17:40:57.666Z,43.80
2023-05-05T17:43:24.124Z,45.49
2023-05-05T17:45:50.579Z,43.67
2023-05-05T17:48:17.018Z,46.42
2023-05-05T17:50:43.622Z,46.24
2023-05-05T17:53:10.030Z,46.53
2023-05-05T17:55:36.426Z,47.29
2023-05-05T17:58:02.813Z,47.90
2023-05-05T18:00:29.212Z,47.45
2023-05-05T18:02:55.657Z,48.05
2023-05-05T18:05:22.092Z,48.54
2023-05-05T18:07:48.445Z,48.12
2023-05-05T18:10:14.790Z,48.46
2023-05-05T18:12:41.206Z,47.86
2023-05-05T18:15:07.765Z,48.15
2023-05-05T18:17:34.228Z,48.99
2023-05-05T18:20:00.631Z,49.91
2023-05-05T18:22:26.970Z,49.67
2023-05-05T18:24:53.297Z,49.63
2023-05-05T18:27:19.630Z,50.44
2023-05-05T18:29:46.014Z,52.10
2023-05-05T18:32:12.430Z,52.20
2023-05-05T18:34:38.778Z,53.53
2023-05-05T18:37:05.156Z,53.54
2023-05-05T18:39:31.526Z,53.89
2023-05-05T18:41:57.906Z,53.61
2023-05-05T18:44:24.648Z,53.92
2023-05-05T18:46:51.783Z,54.02
2023-05-05T18:49:22.663Z,53.61
2023-05-05T18:51:49.727Z,53.47
2023-05-05T18:54:16.397Z,54.33
2023-05-05T18:56:44.819Z,54.31
2023-05-05T18:59:11.930Z,56.57
2023-05-05T19:01:39.886Z,55.19
2023-05-05T19:04:15.502Z,55.81
2023-05-05T19:06:45.473Z,54.79
2023-05-05T19:09:11.942Z,53.98
2023-05-05T19:11:38.544Z,54.25
2023-05-05T19:14:05.020Z,55.67
2023-05-05T19:16:31.436Z,55.76
2023-05-05T19:18:57.930Z,55.21
2023-05-05T19:21:24.604Z,55.85
2023-05-05T19:23:50.971Z,55.98
2023-05-05T19:26:17.329Z,56.95
2023-05-05T19:28:43.720Z,57.84
2023-05-05T19:31:10.101Z,57.58
2023-05-05T19:33:36.533Z,58.13
2023-05-05T19:36:02.948Z,58.33
2023-05-05T19:38:29.288Z,58.61
2023-05-05T19:40:55.860Z,58.31
2023-05-05T19:43:22.325Z,59.40
2023-05-05T19:45:48.787Z,59.54
2023-05-05T19:48:15.314Z,59.82
2023-05-05T19:50:41.646Z,58.83
2023-05-05T19:53:07.999Z,58.34
2023-05-05T19:55:34.493Z,58.74
2023-05-05T19:58:00.833Z,60.40
2023-05-05T20:00:28.690Z,60.65
2023-05-05T20:02:55.091Z,61.71
2023-05-05T20:05:21.578Z,61.28
2023-05-05T20:07:48.032Z,60.96
2023-05-05T20:10:14.551Z,61.68
2023-05-05T20:12:41.151Z,60.57
2023-05-05T20:15:07.592Z,60.14
2023-05-05T20:17:33.991Z,60.09
2023-05-05T20:20:01.455Z,60.33
2023-05-05T20:22:27.807Z,62.45
2023-05-05T20:24:54.187Z,62.42
2023-05-05T20:27:20.569Z,62.58
2023-05-05T20:29:46.934Z,63.26
2023-05-05T20:32:13.281Z,63.47
2023-05-05T20:34:39.656Z,64.41
2023-05-05T20:37:06.130Z,62.86
2023-05-05T20:39:32.532Z,64.16
2023-05-05T20:41:59.082Z,62.83
2023-05-05T20:44:25.420Z,63.11
2023-05-05T20:46:52.137Z,63.27
2023-05-05T20:49:18.989Z,63.48
2023-05-05T20:51:45.329Z,64.28
2023-05-05T20:54:11.665Z,64.52
2023-05-05T20:56:39.224Z,63.66
2023-05-05T20:59:05.605Z,63.88
2023-05-05T21:01:32.154Z,63.57
2023-05-05T21:03:58.696Z,64.01
2023-05-05T21:06:25.094Z,63.30
2023-05-05T21:08:51.659Z,63.61
2023-05-05T21:11:18.075Z,64.07
2023-05-05T21:13:45.443Z,64.48
2023-05-05T21:16:12.112Z,64.85
2023-05-05T21:51:02.832Z,67.12
2023-05-05T21:53:34.970Z,66.20
2023-05-05T21:58:46.229Z,66.87
2023-05-05T22:01:14.312Z,67.78
2023-05-05T22:03:52.474Z,67.44
2023-05-05T22:06:18.925Z,66.42
2023-05-05T22:08:45.395Z,67.48
2023-05-05T22:11:11.802Z,67.83
2023-05-05T22:16:28.699Z,69.01
2023-05-05T22:18:55.221Z,68.44
2023-05-05T22:29:21.329Z,65.92
2023-05-05T22:31:54.545Z,65.39
2023-05-05T22:35:23.710Z,65.43
2023-05-05T22:37:37.523Z,62.31
2023-05-05T22:43:01.273Z,65.09
2023-05-05T22:45:27.946Z,63.62
2023-05-05T22:48:01.960Z,64.09
2023-05-05T22:50:28.493Z,65.49
2023-05-05T22:53:01.524Z,65.62
2023-05-05T22:55:27.932Z,65.77
2023-05-05T22:57:57.264Z,66.97
2023-05-05T23:00:23.769Z,68.90
2023-05-05T23:02:50.264Z,67.32
2023-05-05T23:05:16.816Z,68.00
2023-05-05T23:07:56.994Z,67.88
2023-05-05T23:10:23.836Z,67.75
2023-05-05T23:12:50.423Z,67.83
2023-05-05T23:16:58.040Z,68.18
2023-05-05T23:20:59.061Z,69.75
2023-05-05T23:23:25.624Z,68.83
2023-05-05T23:25:52.094Z,69.40
2023-05-05T23:28:18.538Z,69.59
2023-05-05T23:30:45.077Z,69.22
2023-05-05T23:33:11.654Z,69.08
2023-05-05T23:35:38.145Z,69.02
2023-05-05T23:38:04.748Z,69.09
2023-05-05T23:40:31.429Z,70.12
2023-05-05T23:42:57.895Z,70.80
2023-05-05T23:45:24.373Z,70.87
2023-05-05T23:47:50.935Z,71.61
2023-05-05T23:50:17.413Z,71.65
2023-05-05T23:52:43.802Z,72.36
2023-05-05T23:55:10.428Z,72.92
2023-05-05T23:57:37.134Z,72.96
